Time;durP1;ratioP1;P1;durP2;ratioP2;P2;SDS_P1;SDS_P2;PMS_P1;PMS_P2;Temp;Humidity;BMP_temperature;BMP_pressure;BME280_temperature;BME280_humidity;BME280_pressure;Samples;Min_cycle;Max_cycle;Signal;HPM_P1;HPM_P2
2022/12/11 00:02:20;;;;;;;62.45;22.88;;;;;;;;;;5032879;28;20064;-75
2022/12/11 00:04:46;;;;;;;53.95;21.08;;;;;;;;;;5032129;28;20053;-75
2022/12/11 00:07:13;;;;;;;51.45;21.48;;;;;;;;;;5053144;28;20057;-75
2022/12/11 00:09:39;;;;;;;63.95;22.08;;;;;;;;;;5050520;28;20479;-75
2022/12/11 00:12:06;;;;;;;54.85;21.45;;;;;;;;;;5052947;28;20076;-75
2022/12/11 00:14:32;;;;;;;58.35;21.35;;;;;;;;;;5052994;28;20049;-75
2022/12/11 00:16:58;;;;;;;49.50;19.20;;;;;;;;;;5031382;28;20471;-75
2022/12/11 00:19:24;;;;;;;46.53;18.70;;;;;;;;;;5055331;28;20080;-74
2022/12/11 00:21:50;;;;;;;41.95;18.13;;;;;;;;;;5037672;28;20498;-75
2022/12/11 00:24:16;;;;;;;44.22;19.58;;;;;;;;;;5054409;28;20419;-74
2022/12/11 00:26:43;;;;;;;45.72;18.60;;;;;;;;;;5055176;28;20041;-75
2022/12/11 00:29:13;;;;;;;51.42;20.65;;;;;;;;;;5053339;28;20053;-75
2022/12/11 00:31:39;;;;;;;50.75;19.33;;;;;;;;;;5055107;28;20486;-74
2022/12/11 00:34:05;;;;;;;59.92;21.52;;;;;;;;;;5037159;28;20045;-75
2022/12/11 00:36:31;;;;;;;51.85;20.27;;;;;;;;;;5053717;28;20136;-75
2022/12/11 00:38:57;;;;;;;56.40;20.25;;;;;;;;;;5054766;28;20060;-74
2022/12/11 00:41:24;;;;;;;53.95;20.50;;;;;;;;;;5036454;28;20045;-75
2022/12/11 00:43:50;;;;;;;55.55;21.77;;;;;;;;;;5036117;28;20501;-75
2022/12/11 00:46:16;;;;;;;58.15;20.25;;;;;;;;;;5035349;28;20052;-75
2022/12/11 00:48:42;;;;;;;56.08;21.50;;;;;;;;;;5046666;28;20410;-73
2022/12/11 00:51:08;;;;;;;59.67;19.90;;;;;;;;;;5051835;28;20049;-75
2022/12/11 00:53:36;;;;;;;56.92;21.10;;;;;;;;;;5053271;28;20047;-74
2022/12/11 00:56:02;;;;;;;56.95;21.02;;;;;;;;;;5051169;28;20131;-74
2022/12/11 00:58:28;;;;;;;59.78;20.92;;;;;;;;;;5052128;28;20042;-74
2022/12/11 01:00:54;;;;;;;56.10;20.10;;;;;;;;;;5051515;28;20128;-75
2022/12/11 01:03:20;;;;;;;52.70;19.45;;;;;;;;;;5052804;28;20045;-74
2022/12/11 01:05:55;;;;;;;53.67;20.13;;;;;;;;;;5034287;28;20053;-75
2022/12/11 01:08:21;;;;;;;52.65;19.75;;;;;;;;;;5050588;28;20061;-74
2022/12/11 01:10:47;;;;;;;51.33;18.98;;;;;;;;;;5051479;28;20051;-74
2022/12/11 01:13:13;;;;;;;46.10;18.17;;;;;;;;;;5049567;28;20041;-74
2022/12/11 01:15:41;;;;;;;49.45;18.63;;;;;;;;;;5031288;28;20045;-74
2022/12/11 01:18:08;;;;;;;42.97;18.52;;;;;;;;;;5046355;28;20041;-75
2022/12/11 01:20:34;;;;;;;48.15;18.05;;;;;;;;;;5046683;28;20037;-75
2022/12/11 01:23:00;;;;;;;52.70;18.17;;;;;;;;;;5044464;28;20178;-74
2022/12/11 01:25:27;;;;;;;54.10;18.50;;;;;;;;;;5044439;28;20053;-75
2022/12/11 01:27:54;;;;;;;50.17;19.02;;;;;;;;;;5043947;28;20075;-74
2022/12/11 01:30:21;;;;;;;50.15;17.50;;;;;;;;;;5044905;28;20052;-74
2022/12/11 01:32:47;;;;;;;43.90;17.50;;;;;;;;;;5044911;28;20407;-74
2022/12/11 01:35:13;;;;;;;51.10;17.85;;;;;;;;;;5025998;28;20037;-74
2022/12/11 01:37:40;;;;;;;49.40;17.02;;;;;;;;;;5044936;28;20098;-75
2022/12/11 01:40:07;;;;;;;46.42;17.85;;;;;;;;;;5025931;28;20495;-74
2022/12/11 01:42:33;;;;;;;47.00;16.63;;;;;;;;;;5044034;28;20033;-75
2022/12/11 01:45:14;;;;;;;48.08;18.45;;;;;;;;;;5044715;28;20044;-75
2022/12/11 01:47:40;;;;;;;44.13;17.65;;;;;;;;;;5051786;28;20106;-74
2022/12/11 01:50:07;;;;;;;46.05;18.35;;;;;;;;;;5050148;28;20052;-74
2022/12/11 01:52:33;;;;;;;43.53;18.02;;;;;;;;;;5052916;28;20048;-74
2022/12/11 01:54:59;;;;;;;51.08;18.25;;;;;;;;;;5050973;28;20675;-74
2022/12/11 01:57:26;;;;;;;45.33;16.80;;;;;;;;;;5052182;28;20124;-75
2022/12/11 01:59:52;;;;;;;47.03;18.25;;;;;;;;;;5049444;28;20457;-75
2022/12/11 02:02:20;;;;;;;54.50;18.25;;;;;;;;;;5050842;28;20473;-75
2022/12/11 02:04:47;;;;;;;44.53;17.45;;;;;;;;;;5049627;28;20041;-74
2022/12/11 02:07:13;;;;;;;52.00;18.15;;;;;;;;;;5052192;28;20041;-74
2022/12/11 02:09:41;;;;;;;49.42;17.67;;;;;;;;;;5050166;28;20056;-75
2022/12/11 02:12:09;;;;;;;48.10;17.58;;;;;;;;;;5049908;28;20049;-74
2022/12/11 02:14:54;;;;;;;53.20;18.80;;;;;;;;;;5051211;28;20037;-74
2022/12/11 02:17:20;;;;;;;49.90;18.17;;;;;;;;;;5049778;28;20051;-75
2022/12/11 02:19:46;;;;;;;49.28;18.58;;;;;;;;;;5033531;28;20041;-74
2022/12/11 02:22:16;;;;;;;46.80;18.52;;;;;;;;;;5032649;28;20049;-75
2022/12/11 02:25:03;;;;;;;50.67;17.92;;;;;;;;;;5034335;28;20495;-75
2022/12/11 02:27:36;;;;;;;46.10;18.80;;;;;;;;;;5050461;28;20367;-74
2022/12/11 02:30:05;;;;;;;51.75;19.35;;;;;;;;;;5050320;28;20119;-74
2022/12/11 02:32:42;;;;;;;49.42;17.95;;;;;;;;;;5017927;28;20041;-75
2022/12/11 02:35:11;;;;;;;49.55;18.05;;;;;;;;;;5051687;28;20048;-75
2022/12/11 02:37:38;;;;;;;49.72;18.23;;;;;;;;;;5051926;28;20041;-75
2022/12/11 02:40:06;;;;;;;51.03;19.10;;;;;;;;;;5051614;28;20079;-74
2022/12/11 02:42:33;;;;;;;53.95;18.38;;;;;;;;;;5052134;28;20041;-75
2022/12/11 02:45:00;;;;;;;52.38;18.55;;;;;;;;;;5050814;28;20045;-74
2022/12/11 02:47:28;;;;;;;49.22;17.67;;;;;;;;;;5050299;28;20041;-75
2022/12/11 02:49:56;;;;;;;52.28;18.25;;;;;;;;;;5049972;28;20044;-75
2022/12/11 02:52:23;;;;;;;49.92;18.40;;;;;;;;;;5051882;28;20055;-75
2022/12/11 02:54:50;;;;;;;56.97;18.83;;;;;;;;;;5033549;28;20045;-74
2022/12/11 02:57:33;;;;;;;46.63;18.23;;;;;;;;;;5033399;28;20052;-75
2022/12/11 02:59:59;;;;;;;55.55;17.70;;;;;;;;;;5048728;28;20102;-75
2022/12/11 03:02:25;;;;;;;48.22;18.60;;;;;;;;;;5049077;28;20491;-74
2022/12/11 03:04:51;;;;;;;51.78;18.52;;;;;;;;;;5046369;28;20102;-74
2022/12/11 03:07:22;;;;;;;49.78;17.95;;;;;;;;;;5051183;28;20380;-74
2022/12/11 03:09:48;;;;;;;45.50;17.42;;;;;;;;;;5049273;28;20079;-74
2022/12/11 03:12:16;;;;;;;57.33;19.10;;;;;;;;;;5049917;28;20107;-74
2022/12/11 03:14:43;;;;;;;51.53;18.98;;;;;;;;;;5044322;28;20501;-75
2022/12/11 03:17:15;;;;;;;57.80;19.00;;;;;;;;;;5045149;28;20056;-75
2022/12/11 03:19:47;;;;;;;49.50;18.48;;;;;;;;;;5009235;28;20049;-74
2022/12/11 03:22:18;;;;;;;52.22;18.65;;;;;;;;;;5043650;28;20045;-75
2022/12/11 03:24:52;;;;;;;52.25;18.42;;;;;;;;;;5042198;28;20048;-74
2022/12/11 03:27:21;;;;;;;52.40;18.13;;;;;;;;;;5042843;28;20132;-75
2022/12/11 03:29:54;;;;;;;49.83;17.08;;;;;;;;;;5047335;28;20045;-74
2022/12/11 03:32:22;;;;;;;51.17;17.40;;;;;;;;;;5051480;28;20041;-75
2022/12/11 03:34:54;;;;;;;58.72;18.98;;;;;;;;;;5049441;28;20045;-75
2022/12/11 03:37:21;;;;;;;56.00;18.55;;;;;;;;;;5050629;28;20045;-74
2022/12/11 03:39:49;;;;;;;50.28;18.55;;;;;;;;;;5033040;28;20036;-75
2022/12/11 03:42:16;;;;;;;53.72;18.67;;;;;;;;;;5051406;28;20034;-74
2022/12/11 03:44:44;;;;;;;60.45;18.23;;;;;;;;;;5051145;28;20098;-75
2022/12/11 03:47:11;;;;;;;60.05;18.52;;;;;;;;;;5050039;28;20059;-75
2022/12/11 03:49:39;;;;;;;51.20;18.52;;;;;;;;;;5053017;28;20479;-75
2022/12/11 03:52:06;;;;;;;53.67;19.20;;;;;;;;;;5054113;28;20052;-74
2022/12/11 03:54:34;;;;;;;62.13;20.33;;;;;;;;;;5055058;28;20045;-75
2022/12/11 03:57:01;;;;;;;69.03;19.30;;;;;;;;;;5055163;28;20048;-74
2022/12/11 03:59:27;;;;;;;52.00;18.33;;;;;;;;;;5052343;28;20045;-74
2022/12/11 04:01:53;;;;;;;61.45;19.42;;;;;;;;;;5032964;28;20052;-75
2022/12/11 04:04:19;;;;;;;56.95;19.30;;;;;;;;;;5036605;28;20399;-73
2022/12/11 04:06:45;;;;;;;64.20;18.77;;;;;;;;;;5031457;28;20048;-74
2022/12/11 04:09:11;;;;;;;66.50;20.27;;;;;;;;;;5055961;28;20114;-75
2022/12/11 04:11:38;;;;;;;65.20;20.50;;;;;;;;;;5033551;28;20053;-75
2022/12/11 04:16:50;;;;;;;54.22;18.60;;;;;;;;;;5053819;28;20041;-75
2022/12/11 04:24:48;;;;;;;51.95;18.48;;;;;;;;;;5035553;28;20045;-75
2022/12/11 04:27:47;;;;;;;63.05;19.60;;;;;;;;;;5052146;28;20450;-75
2022/12/11 04:30:00;;;;;;;59.90;19.23;;;;;;;;;;5051689;28;20045;-75
2022/12/11 04:32:26;;;;;;;63.70;20.25;;;;;;;;;;5034643;28;20548;-75
2022/12/11 04:34:52;;;;;;;70.05;20.15;;;;;;;;;;5050668;28;20541;-75
2022/12/11 04:37:18;;;;;;;68.75;19.58;;;;;;;;;;5052706;28;20090;-75
2022/12/11 04:39:44;;;;;;;62.95;20.58;;;;;;;;;;5052766;28;20049;-75
2022/12/11 04:42:10;;;;;;;72.00;20.95;;;;;;;;;;5053702;28;20064;-75
2022/12/11 04:44:36;;;;;;;70.00;20.40;;;;;;;;;;5034688;28;20045;-75
2022/12/11 04:47:02;;;;;;;66.13;20.95;;;;;;;;;;5051471;28;20045;-75
2022/12/11 04:49:28;;;;;;;64.65;21.42;;;;;;;;;;5032659;28;20474;-74
2022/12/11 04:51:54;;;;;;;67.68;20.33;;;;;;;;;;5053025;28;20048;-74
2022/12/11 04:54:20;;;;;;;69.20;21.00;;;;;;;;;;5053469;28;20041;-75
2022/12/11 04:56:46;;;;;;;62.50;20.38;;;;;;;;;;5053134;28;20410;-75
2022/12/11 04:59:12;;;;;;;66.05;20.83;;;;;;;;;;5034532;28;20095;-75
2022/12/11 05:01:38;;;;;;;67.63;20.25;;;;;;;;;;5050387;28;20041;-75
2022/12/11 05:04:04;;;;;;;70.25;20.52;;;;;;;;;;5053081;28;20056;-75
2022/12/11 05:06:30;;;;;;;67.85;21.13;;;;;;;;;;5053134;28;20491;-75
2022/12/11 05:08:56;;;;;;;68.18;20.65;;;;;;;;;;5053493;28;20037;-75
2022/12/11 05:11:22;;;;;;;65.03;21.92;;;;;;;;;;5051618;28;20041;-75
2022/12/11 05:13:48;;;;;;;60.63;20.38;;;;;;;;;;5050072;28;20041;-75
2022/12/11 05:16:15;;;;;;;66.63;22.35;;;;;;;;;;5050365;28;20187;-75
2022/12/11 05:18:41;;;;;;;63.75;20.55;;;;;;;;;;5050833;28;20083;-75
2022/12/11 05:21:09;;;;;;;74.65;20.85;;;;;;;;;;5028342;28;20136;-75
2022/12/11 05:23:35;;;;;;;70.22;21.23;;;;;;;;;;5034122;28;20041;-75
2022/12/11 05:26:03;;;;;;;61.70;20.25;;;;;;;;;;5051425;28;20132;-75
2022/12/11 05:28:30;;;;;;;61.03;20.38;;;;;;;;;;5052960;28;20123;-76
2022/12/11 05:30:57;;;;;;;63.95;19.40;;;;;;;;;;5050791;28;20037;-75
2022/12/11 05:33:23;;;;;;;53.60;18.38;;;;;;;;;;5053216;28;20060;-75
2022/12/11 05:35:49;;;;;;;53.13;19.48;;;;;;;;;;5053245;28;20511;-75
2022/12/11 05:38:15;;;;;;;60.67;20.27;;;;;;;;;;5052881;28;20041;-75
2022/12/11 05:40:41;;;;;;;59.30;19.58;;;;;;;;;;5052069;28;20521;-76
2022/12/11 05:43:08;;;;;;;52.58;18.52;;;;;;;;;;5017154;28;20053;-76
2022/12/11 05:45:34;;;;;;;57.17;20.23;;;;;;;;;;5052993;28;20090;-75
2022/12/11 05:48:00;;;;;;;59.60;20.45;;;;;;;;;;5050860;28;20083;-74
2022/12/11 05:50:26;;;;;;;54.90;18.70;;;;;;;;;;5052516;28;20095;-75
2022/12/11 05:52:52;;;;;;;54.47;18.98;;;;;;;;;;5052202;28;20124;-75
2022/12/11 05:55:18;;;;;;;58.17;18.10;;;;;;;;;;5034857;28;20124;-75
2022/12/11 05:57:44;;;;;;;55.47;18.85;;;;;;;;;;5034784;28;20457;-76
2022/12/11 06:00:11;;;;;;;55.00;18.65;;;;;;;;;;5049765;28;20056;-75
2022/12/11 06:02:37;;;;;;;57.10;19.40;;;;;;;;;;5047493;28;20572;-75
2022/12/11 06:05:03;;;;;;;52.67;19.17;;;;;;;;;;5032641;28;20044;-75
2022/12/11 06:07:29;;;;;;;53.38;17.55;;;;;;;;;;5034261;28;20059;-76
2022/12/11 06:09:56;;;;;;;50.17;18.55;;;;;;;;;;5050654;28;20059;-75
2022/12/11 06:12:22;;;;;;;58.55;20.02;;;;;;;;;;5047519;28;20048;-76
2022/12/11 06:14:47;;;;;;;57.65;18.98;;;;;;;;;;5050886;28;20041;-75
2022/12/11 06:17:13;;;;;;;64.05;22.70;;;;;;;;;;5049117;28;20104;-74
2022/12/11 06:19:39;;;;;;;56.55;19.83;;;;;;;;;;5051522;28;20084;-75
2022/12/11 06:22:05;;;;;;;60.05;20.67;;;;;;;;;;5051742;28;20521;-75
2022/12/11 06:24:31;;;;;;;58.10;20.27;;;;;;;;;;5033146;28;20045;-75
2022/12/11 06:26:58;;;;;;;82.07;37.42;;;;;;;;;;5051044;28;20522;-75
2022/12/11 06:29:24;;;;;;;61.00;22.98;;;;;;;;;;5050623;28;20049;-75
2022/12/11 06:31:50;;;;;;;55.33;19.15;;;;;;;;;;5051584;28;20055;-75
2022/12/11 06:34:16;;;;;;;55.28;20.95;;;;;;;;;;5051383;28;20523;-75
2022/12/11 06:36:42;;;;;;;55.47;19.13;;;;;;;;;;5031353;28;20049;-75
2022/12/11 06:39:08;;;;;;;57.97;19.13;;;;;;;;;;5048733;28;20060;-75
2022/12/11 06:41:34;;;;;;;61.00;20.27;;;;;;;;;;5051122;28;20059;-75
2022/12/11 06:44:00;;;;;;;57.28;19.73;;;;;;;;;;5032787;28;20110;-76
2022/12/11 06:46:26;;;;;;;59.47;20.77;;;;;;;;;;5049042;28;20060;-74
2022/12/11 06:48:52;;;;;;;57.00;19.98;;;;;;;;;;5032501;28;20135;-76
2022/12/11 06:51:19;;;;;;;62.60;20.48;;;;;;;;;;5050649;28;20598;-76
2022/12/11 06:53:50;;;;;;;61.05;21.17;;;;;;;;;;5051421;28;20099;-75
2022/12/11 06:56:16;;;;;;;64.32;21.30;;;;;;;;;;5050962;28;20383;-76
2022/12/11 06:58:43;;;;;;;62.65;21.38;;;;;;;;;;5033394;28;20049;-75
2022/12/11 07:01:14;;;;;;;59.20;21.13;;;;;;;;;;5029679;28;20051;-75
2022/12/11 07:03:40;;;;;;;64.78;21.45;;;;;;;;;;5023340;28;20040;-75
2022/12/11 07:06:06;;;;;;;64.30;22.10;;;;;;;;;;5050909;28;20509;-75
2022/12/11 07:08:32;;;;;;;63.35;21.75;;;;;;;;;;5051470;28;20037;-75
2022/12/11 07:11:06;;;;;;;53.67;20.00;;;;;;;;;;5032784;28;20056;-75
2022/12/11 07:13:32;;;;;;;60.97;20.83;;;;;;;;;;5050698;28;20049;-75
2022/12/11 07:16:00;;;;;;;57.80;21.05;;;;;;;;;;5051677;28;20060;-75
2022/12/11 07:18:26;;;;;;;62.45;21.05;;;;;;;;;;5050981;28;20037;-75
2022/12/11 07:20:52;;;;;;;59.30;20.98;;;;;;;;;;5050336;28;20095;-76
2022/12/11 07:23:19;;;;;;;62.13;20.70;;;;;;;;;;5049656;28;20398;-75
2022/12/11 07:25:45;;;;;;;60.80;21.27;;;;;;;;;;5053200;28;20564;-75
2022/12/11 07:28:11;;;;;;;61.90;20.70;;;;;;;;;;5054476;28;20091;-75
2022/12/11 07:30:40;;;;;;;60.05;20.88;;;;;;;;;;5054247;28;20048;-75
2022/12/11 07:33:06;;;;;;;58.72;20.55;;;;;;;;;;5038286;28;20048;-75
2022/12/11 07:35:34;;;;;;;58.90;22.13;;;;;;;;;;5034945;28;20051;-76
2022/12/11 07:38:00;;;;;;;66.63;22.35;;;;;;;;;;5051495;28;20369;-75
2022/12/11 07:40:26;;;;;;;69.00;23.70;;;;;;;;;;5027995;28;20041;-76
2022/12/11 07:42:52;;;;;;;61.03;21.50;;;;;;;;;;5046805;28;20120;-76
2022/12/11 07:45:19;;;;;;;64.55;22.75;;;;;;;;;;5052513;28;20049;-76
2022/12/11 07:47:45;;;;;;;66.57;22.90;;;;;;;;;;5050245;28;20051;-76
2022/12/11 07:50:11;;;;;;;68.32;23.20;;;;;;;;;;5043000;28;20398;-76
2022/12/11 07:52:37;;;;;;;69.20;23.60;;;;;;;;;;5028938;28;20053;-76
2022/12/11 07:55:03;;;;;;;59.83;21.35;;;;;;;;;;5054644;28;20049;-76
2022/12/11 07:57:29;;;;;;;69.65;23.17;;;;;;;;;;5053599;28;20052;-76
2022/12/11 07:59:55;;;;;;;73.60;24.45;;;;;;;;;;5052134;28;20119;-76
2022/12/11 08:02:21;;;;;;;66.68;22.52;;;;;;;;;;5052801;28;20049;-76
2022/12/11 08:04:49;;;;;;;62.45;22.45;;;;;;;;;;5051009;28;20044;-76
2022/12/11 08:07:15;;;;;;;68.13;23.20;;;;;;;;;;5054476;28;20049;-76
2022/12/11 08:09:41;;;;;;;73.80;23.40;;;;;;;;;;5035789;28;20557;-76
2022/12/11 08:12:07;;;;;;;66.22;22.45;;;;;;;;;;5033307;28;20236;-76
2022/12/11 08:14:33;;;;;;;73.55;23.52;;;;;;;;;;5051961;28;20057;-76
2022/12/11 08:17:01;;;;;;;70.68;23.20;;;;;;;;;;5033496;28;20127;-76
2022/12/11 08:19:27;;;;;;;63.88;22.45;;;;;;;;;;5053750;28;20056;-76
2022/12/11 08:21:53;;;;;;;66.82;23.40;;;;;;;;;;5053130;28;20057;-76
2022/12/11 08:24:19;;;;;;;80.15;24.27;;;;;;;;;;5053280;28;20045;-76
2022/12/11 08:26:46;;;;;;;74.55;24.05;;;;;;;;;;5035457;28;20045;-76
2022/12/11 08:29:12;;;;;;;69.40;23.25;;;;;;;;;;5053171;28;20399;-76
2022/12/11 08:31:39;;;;;;;70.13;23.40;;;;;;;;;;5034847;28;20056;-75
2022/12/11 08:34:05;;;;;;;75.45;24.00;;;;;;;;;;5051025;28;20041;-76
2022/12/11 08:36:31;;;;;;;76.57;23.77;;;;;;;;;;5046437;28;20045;-76
2022/12/11 08:38:57;;;;;;;75.95;25.10;;;;;;;;;;5030982;28;20118;-76
2022/12/11 08:41:28;;;;;;;70.82;23.63;;;;;;;;;;5047133;28;20052;-75
2022/12/11 08:43:54;;;;;;;71.25;23.55;;;;;;;;;;5013471;28;20036;-76
2022/12/11 08:46:28;;;;;;;84.53;24.52;;;;;;;;;;5046810;28;20091;-76
2022/12/11 08:48:55;;;;;;;68.22;22.70;;;;;;;;;;5047179;28;20051;-75
2022/12/11 08:51:23;;;;;;;72.55;22.63;;;;;;;;;;5031431;28;20041;-75
2022/12/11 08:53:50;;;;;;;70.88;23.77;;;;;;;;;;5047314;28;20244;-76
2022/12/11 08:56:18;;;;;;;58.58;21.73;;;;;;;;;;5035758;28;20057;-76
2022/12/11 08:58:44;;;;;;;72.80;23.20;;;;;;;;;;5051456;28;20052;-76
2022/12/11 09:01:21;;;;;;;65.95;21.92;;;;;;;;;;5033815;28;20045;-77
2022/12/11 09:03:47;;;;;;;60.88;21.77;;;;;;;;;;5049303;28;20048;-77
2022/12/11 09:06:14;;;;;;;61.88;21.52;;;;;;;;;;5052874;28;20056;-76
2022/12/11 09:08:41;;;;;;;60.08;21.35;;;;;;;;;;5049258;28;20084;-76
2022/12/11 09:11:15;;;;;;;62.60;21.75;;;;;;;;;;5050323;28;20052;-76
2022/12/11 09:13:41;;;;;;;60.00;20.45;;;;;;;;;;5045204;28;20407;-76
2022/12/11 09:16:08;;;;;;;60.28;21.35;;;;;;;;;;5053255;28;20057;-76
2022/12/11 09:18:35;;;;;;;63.42;21.75;;;;;;;;;;5047633;28;20038;-76
2022/12/11 09:21:03;;;;;;;53.05;20.63;;;;;;;;;;5051345;28;20045;-76
2022/12/11 09:23:29;;;;;;;53.35;20.08;;;;;;;;;;5049498;28;20111;-75
2022/12/11 09:25:55;;;;;;;53.92;20.40;;;;;;;;;;5043832;28;20049;-76
2022/12/11 09:28:21;;;;;;;54.80;21.00;;;;;;;;;;5051947;28;20084;-77
2022/12/11 09:30:47;;;;;;;61.63;22.13;;;;;;;;;;5050438;28;20124;-75
2022/12/11 09:33:14;;;;;;;62.03;21.45;;;;;;;;;;5032815;28;20049;-75
2022/12/11 09:35:40;;;;;;;60.53;23.05;;;;;;;;;;5016918;28;20037;-75
2022/12/11 09:38:06;;;;;;;57.03;22.38;;;;;;;;;;5033053;28;20098;-75
2022/12/11 09:40:32;;;;;;;57.13;22.38;;;;;;;;;;5047922;28;20045;-73
2022/12/11 09:43:08;;;;;;;58.80;21.92;;;;;;;;;;5052038;28;20037;-74
2022/12/11 09:45:34;;;;;;;61.40;22.25;;;;;;;;;;5033552;28;20178;-73
2022/12/11 09:48:01;;;;;;;50.78;22.38;;;;;;;;;;5051911;28;20049;-73
2022/12/11 09:50:30;;;;;;;66.38;24.85;;;;;;;;;;5047900;28;20444;-75
2022/12/11 09:53:17;;;;;;;55.10;23.00;;;;;;;;;;5051205;28;20044;-73
2022/12/11 09:55:53;;;;;;;55.92;21.88;;;;;;;;;;5046244;28;20491;-73
2022/12/11 09:58:25;;;;;;;50.63;20.23;;;;;;;;;;5049971;28;20068;-73
2022/12/11 10:00:55;;;;;;;61.35;22.33;;;;;;;;;;5050782;28;20053;-73
2022/12/11 10:03:30;;;;;;;58.45;21.42;;;;;;;;;;5051906;28;20079;-73
2022/12/11 10:06:03;;;;;;;55.92;21.77;;;;;;;;;;5050078;28;20468;-73
2022/12/11 10:08:49;;;;;;;60.35;22.50;;;;;;;;;;5051727;28;20041;-74
2022/12/11 10:11:34;;;;;;;51.30;19.60;;;;;;;;;;5047381;28;20514;-73
2022/12/11 10:14:19;;;;;;;59.97;22.15;;;;;;;;;;5031253;28;20049;-73
2022/12/11 10:16:50;;;;;;;63.92;22.77;;;;;;;;;;5050092;28;20167;-73
2022/12/11 10:19:18;;;;;;;56.25;22.00;;;;;;;;;;5045101;28;20436;-73
2022/12/11 10:21:44;;;;;;;61.33;21.67;;;;;;;;;;5033037;28;20092;-73
2022/12/11 10:24:14;;;;;;;61.88;22.40;;;;;;;;;;5039620;28;20048;-74
2022/12/11 10:26:40;;;;;;;61.65;23.52;;;;;;;;;;5044924;28;20044;-73
2022/12/11 10:29:12;;;;;;;65.25;23.50;;;;;;;;;;5034242;28;20053;-74
2022/12/11 10:31:43;;;;;;;64.70;24.42;;;;;;;;;;5049029;28;20037;-73
2022/12/11 10:34:12;;;;;;;64.57;23.52;;;;;;;;;;5052223;28;20110;-74
2022/12/11 10:36:40;;;;;;;62.97;23.80;;;;;;;;;;5015200;28;20052;-73
2022/12/11 10:39:14;;;;;;;56.45;22.52;;;;;;;;;;5051231;28;20086;-73
2022/12/11 10:41:42;;;;;;;62.80;24.30;;;;;;;;;;5043671;28;20052;-73
2022/12/11 10:44:24;;;;;;;60.13;22.80;;;;;;;;;;5047566;28;20498;-73
2022/12/11 10:46:50;;;;;;;;;;;;;;;;;;5051889;28;20041;-73
2022/12/11 10:49:26;;;;;;;56.15;22.40;;;;;;;;;;5051450;28;20003;-74
2022/12/11 10:51:54;;;;;;;60.83;22.25;;;;;;;;;;5051484;28;20041;-73
2022/12/11 10:54:23;;;;;;;61.25;22.75;;;;;;;;;;5050342;28;20092;-73
2022/12/11 10:56:50;;;;;;;58.10;21.02;;;;;;;;;;5052034;28;20048;-73
2022/12/11 10:59:24;;;;;;;60.08;22.15;;;;;;;;;;5053797;28;20059;-74
2022/12/11 11:01:50;;;;;;;57.67;23.08;;;;;;;;;;5055681;28;20053;-74
2022/12/11 11:04:21;;;;;;;64.70;22.60;;;;;;;;;;5046700;28;20048;-73
2022/12/11 11:06:48;;;;;;;59.17;23.83;;;;;;;;;;5049175;28;20029;-73
2022/12/11 11:09:28;;;;;;;58.20;21.92;;;;;;;;;;5043775;28;20360;-73
2022/12/11 11:11:54;;;;;;;59.03;22.65;;;;;;;;;;5054378;28;20122;-73
2022/12/11 11:14:24;;;;;;;57.67;23.45;;;;;;;;;;5055371;28;20130;-73
2022/12/11 11:16:51;;;;;;;54.28;23.10;;;;;;;;;;5052392;28;20482;-73
2022/12/11 11:19:28;;;;;;;56.42;23.02;;;;;;;;;;5016175;28;20052;-73
2022/12/11 11:21:57;;;;;;;59.65;23.85;;;;;;;;;;5054135;28;20053;-73
2022/12/11 11:24:28;;;;;;;62.92;25.48;;;;;;;;;;5020413;28;20112;-74
2022/12/11 11:26:54;;;;;;;54.28;23.10;;;;;;;;;;5050903;28;20053;-73
2022/12/11 11:29:27;;;;;;;60.28;24.00;;;;;;;;;;5054976;28;20053;-73
2022/12/11 11:31:53;;;;;;;57.35;24.48;;;;;;;;;;5053412;28;20395;-74
2022/12/11 11:34:21;;;;;;;56.78;23.60;;;;;;;;;;5053620;28;20049;-73
2022/12/11 11:36:56;;;;;;;57.63;23.42;;;;;;;;;;5053979;28;20565;-73
2022/12/11 11:39:25;;;;;;;53.72;21.42;;;;;;;;;;5051501;28;20084;-74
2022/12/11 11:42:10;;;;;;;59.95;23.98;;;;;;;;;;5055157;28;20045;-75
2022/12/11 11:44:38;;;;;;;59.97;23.33;;;;;;;;;;5050503;28;20111;-74
2022/12/11 11:47:13;;;;;;;58.70;23.73;;;;;;;;;;5036452;28;20118;-75
2022/12/11 11:49:58;;;;;;;53.95;23.10;;;;;;;;;;5054282;28;20056;-73
2022/12/11 11:52:28;;;;;;;55.35;22.27;;;;;;;;;;5036784;28;20056;-73
2022/12/11 11:55:05;;;;;;;62.97;24.25;;;;;;;;;;5055324;28;20041;-74
2022/12/11 11:57:31;;;;;;;55.53;22.83;;;;;;;;;;5054252;28;20041;-74
2022/12/11 12:00:08;;;;;;;62.55;23.48;;;;;;;;;;5054929;28;20063;-73
2022/12/11 12:02:34;;;;;;;61.90;24.17;;;;;;;;;;5054261;28;20053;-73
2022/12/11 12:05:01;;;;;;;50.97;22.10;;;;;;;;;;5038742;28;20577;-73
2022/12/11 12:07:36;;;;;;;62.83;24.10;;;;;;;;;;5051309;28;20053;-74
2022/12/11 12:10:15;;;;;;;59.40;22.73;;;;;;;;;;5053352;28;20144;-73
2022/12/11 12:12:53;;;;;;;52.00;21.98;;;;;;;;;;5038488;28;20045;-73
2022/12/11 12:15:29;;;;;;;62.95;23.33;;;;;;;;;;5050430;28;20072;-74
2022/12/11 12:18:05;;;;;;;56.92;23.40;;;;;;;;;;5052055;28;20121;-74
2022/12/11 12:20:34;;;;;;;52.25;22.80;;;;;;;;;;5051391;28;20491;-73
2022/12/11 12:23:05;;;;;;;52.85;23.23;;;;;;;;;;5044920;28;20049;-73
2022/12/11 12:25:38;;;;;;;52.90;21.85;;;;;;;;;;5028022;28;20041;-73
2022/12/11 12:28:04;;;;;;;49.05;20.67;;;;;;;;;;5050661;28;20073;-73
2022/12/11 12:30:35;;;;;;;55.10;22.42;;;;;;;;;;5050322;28;20106;-74
2022/12/11 12:33:01;;;;;;;54.03;21.90;;;;;;;;;;5033387;28;20052;-73
2022/12/11 12:35:35;;;;;;;57.85;22.77;;;;;;;;;;5032953;28;20045;-74
2022/12/11 12:38:12;;;;;;;53.55;22.60;;;;;;;;;;5051718;28;20045;-73
2022/12/11 12:40:38;;;;;;;53.78;22.30;;;;;;;;;;5051650;28;20391;-74
2022/12/11 12:43:10;;;;;;;55.88;22.95;;;;;;;;;;5033545;28;20052;-73
2022/12/11 12:45:43;;;;;;;49.75;22.58;;;;;;;;;;5046305;28;20202;-73
2022/12/11 12:48:10;;;;;;;57.92;24.00;;;;;;;;;;5045794;28;20067;-74
2022/12/11 12:50:47;;;;;;;54.88;22.50;;;;;;;;;;5053562;28;20099;-74
2022/12/11 12:53:17;;;;;;;54.80;22.60;;;;;;;;;;5030909;28;20049;-73
2022/12/11 12:55:43;;;;;;;54.13;22.55;;;;;;;;;;5049779;28;20116;-73
2022/12/11 12:58:26;;;;;;;54.03;21.25;;;;;;;;;;5049357;28;20045;-73
2022/12/11 13:00:52;;;;;;;53.05;21.92;;;;;;;;;;5047824;28;20061;-74
2022/12/11 13:03:21;;;;;;;53.22;21.38;;;;;;;;;;5052058;28;20056;-74
2022/12/11 13:05:56;;;;;;;57.00;22.33;;;;;;;;;;5016463;28;20039;-73
2022/12/11 13:08:27;;;;;;;54.45;21.23;;;;;;;;;;5051259;28;20040;-74
2022/12/11 13:11:04;;;;;;;48.88;20.88;;;;;;;;;;5049914;28;20471;-74
2022/12/11 13:13:33;;;;;;;59.83;22.70;;;;;;;;;;5051766;28;20140;-74
2022/12/11 13:16:25;;;;;;;61.05;22.42;;;;;;;;;;5053732;28;20041;-75
2022/12/11 13:18:51;;;;;;;55.97;22.83;;;;;;;;;;5032820;28;20056;-74
2022/12/11 13:21:37;;;;;;;53.80;22.25;;;;;;;;;;5050542;28;20048;-74
2022/12/11 13:24:12;;;;;;;53.70;22.95;;;;;;;;;;5035780;28;20052;-74
2022/12/11 13:26:39;;;;;;;54.80;21.73;;;;;;;;;;5050124;28;20041;-74
2022/12/11 13:29:05;;;;;;;51.28;22.10;;;;;;;;;;5034935;28;20044;-74
2022/12/11 13:31:38;;;;;;;54.97;22.67;;;;;;;;;;5052556;28;20564;-74
2022/12/11 13:34:17;;;;;;;60.05;22.83;;;;;;;;;;5049907;28;20057;-74
2022/12/11 13:36:53;;;;;;;56.28;23.95;;;;;;;;;;5038717;28;20127;-74
2022/12/11 13:39:23;;;;;;;55.92;21.88;;;;;;;;;;5045992;28;20133;-76
2022/12/11 13:41:52;;;;;;;55.85;21.83;;;;;;;;;;5046917;28;20180;-74
2022/12/11 13:44:24;;;;;;;60.90;21.90;;;;;;;;;;5048069;28;20048;-74
2022/12/11 13:46:51;;;;;;;62.50;29.33;;;;;;;;;;5047208;28;20091;-74
2022/12/11 13:49:21;;;;;;;58.67;22.52;;;;;;;;;;5034839;28;20049;-74
2022/12/11 13:51:52;;;;;;;55.67;23.00;;;;;;;;;;5052570;28;20069;-74
2022/12/11 13:54:18;;;;;;;57.28;24.45;;;;;;;;;;5051880;28;20103;-74
2022/12/11 13:56:54;;;;;;;48.97;21.58;;;;;;;;;;5054861;28;20044;-74
2022/12/11 13:59:25;;;;;;;56.38;21.45;;;;;;;;;;5032021;28;20053;-74
2022/12/11 14:01:53;;;;;;;60.15;22.50;;;;;;;;;;5033327;28;20080;-73
2022/12/11 14:04:21;;;;;;;59.15;23.15;;;;;;;;;;5032773;28;20407;-74
2022/12/11 14:06:47;;;;;;;53.42;21.58;;;;;;;;;;5047529;28;20052;-74
2022/12/11 14:09:21;;;;;;;55.72;22.73;;;;;;;;;;5039375;28;20055;-74
2022/12/11 14:11:47;;;;;;;56.38;22.63;;;;;;;;;;5051227;28;20048;-74
2022/12/11 14:14:19;;;;;;;61.13;23.38;;;;;;;;;;5052573;28;20049;-74
2022/12/11 14:16:49;;;;;;;57.95;23.92;;;;;;;;;;5052432;28;20041;-74
2022/12/11 14:19:17;;;;;;;58.28;23.00;;;;;;;;;;5041117;28;20098;-74
2022/12/11 14:21:43;;;;;;;58.45;22.23;;;;;;;;;;5032482;28;20487;-74
2022/12/11 14:24:13;;;;;;;56.83;22.27;;;;;;;;;;5032765;28;20041;-74
2022/12/11 14:26:39;;;;;;;58.63;24.25;;;;;;;;;;5051334;28;20064;-74
2022/12/11 14:29:06;;;;;;;89.68;35.90;;;;;;;;;;5052366;28;20512;-74
2022/12/11 14:31:42;;;;;;;139.52;57.92;;;;;;;;;;5050305;28;20049;-74
2022/12/11 14:34:20;;;;;;;101.03;40.42;;;;;;;;;;5042932;28;20132;-73